Maeva Solo Sailor — FL2998 — position and weather

sailwx.info

Track history (hours):
 
Tides and Currents Weather Stations Pressure Air Temp Water Temp Dewpoint Dewpoint Depression Visibility Wind Speed Wind Dir Waves Ship Positions

Maeva Solo Sailor

Last reported at 2017-Sep-20 11:49 UTC. Time now 2017-Nov-23 16:44 UTC.
Position N 48°53' W 002°25'.
Warning: this ship's position is months out of date.

Length 9 m.

Type: Sailing vessel. MMSI: 227165040.

Date/timePositionNaut miles runAvg speedWind from/ knotsBaromVisibWave heightAir tempDewpointWater temp
2017-Sep-20 11:49N 48°53' W 002°25'2 5.2
2017-Sep-20 11:25N 48°51' W 002°26'6 5.3
2017-Sep-20 10:15N 48°46' W 002°31'1 5.2
2017-Sep-20 10:00N 48°45' W 002°33'3 5.2
2017-Sep-20 09:30N 48°43' W 002°35'3 5.1
2017-Sep-20 08:57N 48°41' W 002°37'2 5.2
2017-Sep-20 08:31N 48°39' W 002°39'3 5.3
2017-Sep-20 08:00N 48°36' W 002°41'3 5.0
2017-Sep-20 07:28N 48°34' W 002°42'  
Track history (hours):
 
Tides and Currents Weather Stations Pressure Air Temp Water Temp Dewpoint Dewpoint Depression Visibility Wind Speed Wind Dir Waves Ship Positions

Maeva Solo Sailor

Last reported at 2017-Sep-20 11:49 UTC. Time now 2017-Nov-23 16:44 UTC.
Position N 48°53' W 002°25'.
Warning: this ship's position is months out of date.

Length 9 m.

Type: Sailing vessel. MMSI: 227165040.

Date/timePositionNaut miles runAvg speedWind from/ knotsBaromVisibWave heightAir tempDewpointWater temp
2017-Sep-20 11:49N 48°53' W 002°25'2 5.2
2017-Sep-20 11:25N 48°51' W 002°26'6 5.3
2017-Sep-20 10:15N 48°46' W 002°31'1 5.2
2017-Sep-20 10:00N 48°45' W 002°33'3 5.2
2017-Sep-20 09:30N 48°43' W 002°35'3 5.1
2017-Sep-20 08:57N 48°41' W 002°37'2 5.2
2017-Sep-20 08:31N 48°39' W 002°39'3 5.3
2017-Sep-20 08:00N 48°36' W 002°41'3 5.0
2017-Sep-20 07:28N 48°34' W 002°42'  

Dump ship's entire track history